Hasselt, Netherlands
Current Conditions -  °F | °C
As of 4:55 AM on Monday 24 Nov 2014 (Local Time) from EHDL Reporting Station
Broken Clouds Broken Clouds  
Wind Chill: 44°   Ceiling: 700
Heat Index: 46°   Visibility: 6mi
Dew Point: 45°   Wind: 6mph
Humidity: 93%   Direction: 300°WNW
Pressure: 30.12"   Gusts: NA
Location:  52.59°N, 6.1°E
Report Text: EHDL 240355Z AUTO 30005KT 9999 SCT006 BKN007 BKN009 08/07 Q1020 YLO
Loading
Personal Weather Stations






























Interactive Weather Map New forecast layout! Learn more

10-Day Weather Forecast

Advertisements
Track Severe Weather on mobile